Time;durP1;ratioP1;P1;durP2;ratioP2;P2;SDS_P1;SDS_P2;PMS_P1;PMS_P2;Temp;Humidity;BMP_temperature;BMP_pressure;BME280_temperature;BME280_humidity;BME280_pressure;Samples;Min_cycle;Max_cycle;Signal;HPM_P1;HPM_P2
2023/12/16 00:05:54;;;;;;;19.60;5.10;;;15.00;64.50;;;;;;4886596;29;20458;-81
2023/12/16 00:16:57;;;;;;;15.47;4.03;;;15.00;64.70;;;;;;4889995;29;20405;-79
2023/12/16 00:30:46;;;;;;;12.47;4.43;;;15.00;63.70;;;;;;4905935;29;20530;-80
2023/12/16 00:33:41;;;;;;;16.90;4.30;;;15.10;63.60;;;;;;4957793;28;20462;-80
2023/12/16 00:36:30;;;;;;;18.80;4.47;;;15.10;63.60;;;;;;5009165;28;20448;-79
2023/12/16 00:39:35;;;;;;;13.50;4.53;;;15.00;63.40;;;;;;5023919;28;20502;-80
2023/12/16 00:42:41;;;;;;;13.70;4.60;;;15.00;63.40;;;;;;5035421;28;20458;-80
2023/12/16 00:46:32;;;;;;;12.37;4.50;;;15.00;63.30;;;;;;4977809;28;20447;-79
2023/12/16 00:53:21;;;;;;;14.43;4.67;;;15.10;63.10;;;;;;4974511;28;20542;-79
2023/12/16 00:56:05;;;;;;;17.50;5.53;;;15.20;62.80;;;;;;5037331;28;20475;-79
2023/12/16 01:01:59;;;;;;;11.53;4.37;;;15.10;62.60;;;;;;5034069;28;20443;-80
2023/12/16 01:04:41;;;;;;;13.30;4.73;;;15.10;62.80;;;;;;5025044;28;20526;-78
2023/12/16 01:10:33;;;;;;;13.23;4.90;;;15.20;62.10;;;;;;5035563;28;20440;-78
2023/12/16 01:19:52;;;;;;;17.37;5.00;;;15.10;61.70;;;;;;5035208;28;20461;-80
2023/12/16 01:22:26;;;;;;;15.60;4.27;;;15.20;62.10;;;;;;5020139;28;20447;-78
2023/12/16 01:25:16;;;;;;;11.10;3.87;;;15.30;61.60;;;;;;5007003;28;20475;-79
2023/12/16 01:28:31;;;;;;;13.93;4.30;;;15.20;61.20;;;;;;5041914;28;20462;-78
2023/12/16 01:31:26;;;;;;;16.50;4.10;;;15.20;61.40;;;;;;5017486;28;20452;-79
2023/12/16 01:33:59;;;;;;;12.30;4.33;;;15.10;61.30;;;;;;5039617;28;20463;-78
2023/12/16 01:36:37;;;;;;;15.77;4.50;;;15.10;61.00;;;;;;5033751;28;20450;-79
2023/12/16 01:39:15;;;;;;;15.13;4.47;;;15.10;60.70;;;;;;5037257;28;20458;-78
2023/12/16 01:41:58;;;;;;;10.90;4.40;;;15.10;60.70;;;;;;5034256;28;20451;-79
2023/12/16 01:45:28;;;;;;;17.67;4.00;;;15.10;60.70;;;;;;5035303;28;20493;-80
2023/12/16 01:48:07;;;;;;;16.77;4.70;;;15.10;60.50;;;;;;5029601;28;20490;-78
2023/12/16 01:50:53;;;;;;;11.00;3.97;;;15.10;60.80;;;;;;5035201;28;20443;-79
2023/12/16 01:53:35;;;;;;;10.90;3.73;;;15.20;60.30;;;;;;5028849;28;20447;-78
2023/12/16 01:56:12;;;;;;;20.53;3.40;;;15.20;60.20;;;;;;5031126;28;20451;-79
2023/12/16 01:59:04;;;;;;;8.63;3.93;;;15.10;59.90;;;;;;5035513;28;20447;-78
2023/12/16 02:02:08;;;;;;;8.10;3.70;;;15.20;59.90;;;;;;5029461;28;20480;-79
2023/12/16 02:04:49;;;;;;;7.60;3.40;;;15.20;60.00;;;;;;5029891;28;20482;-78
2023/12/16 02:07:46;;;;;;;;;;;;;;;;;;;;;
2023/12/16 02:10:39;;;;;;;10.67;3.50;;;15.10;59.40;;;;;;5023290;28;20436;-78
2023/12/16 02:13:35;;;;;;;;;;;;;;;;;;;;;
2023/12/16 02:16:15;;;;;;;15.80;4.10;;;15.20;59.60;;;;;;5034806;28;20447;-78
2023/12/16 02:19:01;;;;;;;6.63;3.30;;;15.10;59.10;;;;;;5089094;22;20482;-78
2023/12/16 02:21:44;;;;;;;10.57;3.83;;;15.20;59.20;;;;;;5075171;28;20465;-78
2023/12/16 02:24:41;;;;;;;12.87;3.87;;;15.10;59.10;;;;;;5062362;28;20460;-79
2023/12/16 02:30:20;;;;;;;13.33;3.43;;;15.20;59.00;;;;;;5070385;28;20446;-79
2023/12/16 02:33:22;;;;;;;;;;;;;;;;;;;;;
2023/12/16 02:36:00;;;;;;;12.17;4.30;;;15.20;58.80;;;;;;5068660;28;20441;-79
2023/12/16 02:38:52;;;;;;;8.07;3.40;;;15.20;58.70;;;;;;5078370;28;20474;-79
2023/12/16 02:41:43;;;;;;;11.90;3.90;;;15.20;58.20;;;;;;5080101;28;20979;-78
2023/12/16 02:44:41;;;;;;;15.87;4.07;;;15.20;58.20;;;;;;5081953;28;20449;-80
2023/12/16 02:47:29;;;;;;;7.83;3.10;;;15.20;58.40;;;;;;5076214;28;20541;-79
2023/12/16 02:50:09;;;;;;;9.80;3.43;;;15.20;58.40;;;;;;5069071;28;20435;-76
2023/12/16 02:52:40;;;;;;;11.50;3.00;;;15.30;58.20;;;;;;5081267;28;20533;-79
2023/12/16 02:55:09;;;;;;;8.03;2.80;;;15.20;58.00;;;;;;5080952;28;20452;-80
2023/12/16 02:57:39;;;;;;;12.17;3.50;;;15.20;58.40;;;;;;5080962;28;20534;-79
2023/12/16 03:00:09;;;;;;;7.13;2.73;;;15.20;58.40;;;;;;5072737;28;20457;-79
2023/12/16 03:02:37;;;;;;;12.17;3.70;;;15.30;58.10;;;;;;5073612;28;20477;-80
2023/12/16 03:05:06;;;;;;;8.70;3.30;;;15.20;58.00;;;;;;5081440;28;20438;-79
2023/12/16 03:07:34;;;;;;;13.83;2.83;;;15.20;57.90;;;;;;5076751;28;20469;-79
2023/12/16 03:10:04;;;;;;;10.20;2.90;;;15.10;57.60;;;;;;5079466;28;20460;-79
2023/12/16 03:12:32;;;;;;;10.63;2.90;;;15.10;58.00;;;;;;5078599;28;20488;-79
2023/12/16 03:15:07;;;;;;;11.03;3.33;;;15.10;57.70;;;;;;5073902;28;20445;-80
2023/12/16 03:21:20;;;;;;;6.53;3.00;;;15.10;57.80;;;;;;5016174;28;20476;-80
2023/12/16 03:23:48;;;;;;;7.40;2.60;;;15.10;57.50;;;;;;5075402;28;20913;-80
2023/12/16 03:26:17;;;;;;;9.43;2.90;;;15.10;57.40;;;;;;5058696;28;20492;-79
2023/12/16 03:29:13;;;;;;;11.90;3.00;;;15.00;57.50;;;;;;5070104;28;20518;-79
2023/12/16 03:31:47;;;;;;;7.47;2.80;;;15.00;57.80;;;;;;5063477;28;20450;-79
2023/12/16 03:34:15;;;;;;;8.67;3.13;;;15.00;57.10;;;;;;5078979;28;20457;-78
2023/12/16 03:36:48;;;;;;;7.73;2.63;;;15.00;57.20;;;;;;5079187;28;20461;-79
2023/12/16 03:39:16;;;;;;;11.77;3.10;;;15.00;57.30;;;;;;5082675;28;20471;-79
2023/12/16 03:41:46;;;;;;;8.07;3.13;;;14.90;57.40;;;;;;5080592;28;20476;-79
2023/12/16 03:44:14;;;;;;;7.73;3.03;;;14.90;57.10;;;;;;5080267;28;20449;-80
2023/12/16 03:46:45;;;;;;;10.23;2.70;;;14.90;57.20;;;;;;5080655;28;20503;-80
2023/12/16 03:49:15;;;;;;;6.97;3.00;;;14.90;57.00;;;;;;5080028;28;20442;-79
2023/12/16 03:51:43;;;;;;;7.10;3.00;;;14.90;57.50;;;;;;5077283;28;20450;-81
2023/12/16 03:54:11;;;;;;;7.13;2.70;;;14.90;56.80;;;;;;5080944;28;20499;-80
2023/12/16 03:56:39;;;;;;;7.23;2.83;;;14.80;57.30;;;;;;5079192;28;20459;-79
2023/12/16 03:59:08;;;;;;;10.87;2.97;;;14.90;56.90;;;;;;5078066;28;20458;-80
2023/12/16 04:01:36;;;;;;;5.93;2.70;;;14.80;56.70;;;;;;5075777;28;20467;-79
2023/12/16 04:04:05;;;;;;;14.80;3.53;;;14.80;57.50;;;;;;5076353;28;20438;-80
2023/12/16 04:06:35;;;;;;;13.40;3.70;;;14.90;56.40;;;;;;5078943;28;20458;-80
2023/12/16 04:09:03;;;;;;;9.03;2.63;;;14.80;56.70;;;;;;5071701;28;20442;-79
2023/12/16 04:11:31;;;;;;;9.30;2.97;;;14.70;56.80;;;;;;5059856;28;20431;-79
2023/12/16 04:13:59;;;;;;;9.30;3.90;;;14.70;56.80;;;;;;5057795;28;20484;-79
2023/12/16 04:16:28;;;;;;;10.40;3.90;;;14.70;57.00;;;;;;5057528;28;20509;-78
2023/12/16 04:18:56;;;;;;;12.17;4.93;;;14.70;57.00;;;;;;5058551;28;20805;-79
2023/12/16 04:21:24;;;;;;;12.20;5.53;;;14.70;56.80;;;;;;5058361;28;20470;-79
2023/12/16 04:23:54;;;;;;;19.63;8.30;;;14.70;56.70;;;;;;5069518;28;20470;-80
2023/12/16 04:26:23;;;;;;;18.37;8.10;;;14.70;57.10;;;;;;5077047;28;20446;-79
2023/12/16 04:28:51;;;;;;;18.10;6.50;;;14.70;56.50;;;;;;5077618;28;20450;-80
2023/12/16 04:31:20;;;;;;;17.50;7.33;;;14.70;56.80;;;;;;5078218;28;20441;-80
2023/12/16 04:33:49;;;;;;;16.13;7.00;;;14.60;56.60;;;;;;5064971;28;20453;-80
2023/12/16 04:36:18;;;;;;;16.17;5.63;;;14.60;57.10;;;;;;5059247;28;20447;-78
2023/12/16 04:38:47;;;;;;;15.97;8.33;;;14.60;56.50;;;;;;5068342;28;20470;-79
2023/12/16 04:41:17;;;;;;;19.70;8.10;;;14.60;56.60;;;;;;5076728;28;20465;-79
2023/12/16 04:43:45;;;;;;;14.33;5.80;;;14.50;56.70;;;;;;5078210;28;20438;-80
2023/12/16 04:46:14;;;;;;;19.20;7.50;;;14.50;56.50;;;;;;5079031;28;20446;-80
2023/12/16 04:48:42;;;;;;;13.30;6.03;;;14.50;56.70;;;;;;5080699;28;20472;-79
2023/12/16 04:51:11;;;;;;;15.50;6.70;;;14.50;56.90;;;;;;5076758;28;20458;-79
2023/12/16 04:53:39;;;;;;;21.50;8.60;;;14.50;56.70;;;;;;5077214;28;20484;-79
2023/12/16 04:56:08;;;;;;;17.63;7.20;;;14.50;56.60;;;;;;5077017;28;20457;-80
2023/12/16 04:58:38;;;;;;;13.97;6.00;;;14.50;56.90;;;;;;5077825;28;20519;-79
2023/12/16 05:01:06;;;;;;;15.30;6.37;;;14.40;56.40;;;;;;5077702;28;20499;-80
2023/12/16 05:03:35;;;;;;;11.90;6.10;;;14.40;56.80;;;;;;5080172;28;20450;-79
2023/12/16 05:06:04;;;;;;;13.40;5.70;;;14.40;56.70;;;;;;5080995;28;20457;-80
2023/12/16 05:08:32;;;;;;;12.60;5.80;;;14.40;56.60;;;;;;5075954;28;20465;-79
2023/12/16 05:11:00;;;;;;;14.60;4.77;;;14.50;56.90;;;;;;5080050;28;20433;-79
2023/12/16 05:13:33;;;;;;;15.70;4.97;;;14.40;56.40;;;;;;5080357;28;20453;-81
2023/12/16 05:16:03;;;;;;;11.60;5.30;;;14.40;56.70;;;;;;5081158;28;20499;-78
2023/12/16 05:18:34;;;;;;;15.47;5.67;;;14.40;56.40;;;;;;5076814;28;20473;-79
2023/12/16 05:21:03;;;;;;;14.37;4.70;;;14.40;57.30;;;;;;5077259;28;20516;-79
2023/12/16 05:23:31;;;;;;;14.27;5.10;;;14.50;56.60;;;;;;5076532;28;20544;-80
2023/12/16 05:25:59;;;;;;;17.03;5.00;;;14.40;56.80;;;;;;5077352;28;20463;-79
2023/12/16 05:28:27;;;;;;;13.53;4.50;;;14.40;56.60;;;;;;5077309;28;20857;-79
2023/12/16 05:30:55;;;;;;;10.63;4.43;;;14.40;57.00;;;;;;5073579;28;20454;-80
2023/12/16 05:33:25;;;;;;;8.43;4.47;;;14.50;56.60;;;;;;5076964;28;20449;-79
2023/12/16 05:35:53;;;;;;;10.23;4.20;;;14.50;56.70;;;;;;5071064;28;20446;-79
2023/12/16 05:38:22;;;;;;;7.57;3.87;;;14.50;56.90;;;;;;5075115;28;20534;-79
2023/12/16 05:40:52;;;;;;;10.53;3.50;;;14.50;56.10;;;;;;5060698;28;20477;-79
2023/12/16 05:43:20;;;;;;;16.07;4.20;;;14.50;56.50;;;;;;5072318;28;20469;-78
2023/12/16 05:45:48;;;;;;;12.17;3.83;;;14.50;56.20;;;;;;5063893;28;20454;-79
2023/12/16 05:48:16;;;;;;;8.97;3.67;;;14.40;56.20;;;;;;5073148;28;20465;-79
2023/12/16 05:50:46;;;;;;;11.50;3.93;;;14.40;56.30;;;;;;5075868;28;20473;-79
2023/12/16 05:53:14;;;;;;;13.20;3.93;;;14.40;56.20;;;;;;5075329;28;20449;-79
2023/12/16 05:55:47;;;;;;;9.20;3.27;;;14.40;56.60;;;;;;5058878;28;20442;-79
2023/12/16 05:58:15;;;;;;;16.80;4.20;;;14.40;56.70;;;;;;5067378;28;20477;-79
2023/12/16 06:00:48;;;;;;;13.33;3.90;;;14.30;56.30;;;;;;5065938;28;20438;-79
2023/12/16 06:03:16;;;;;;;13.97;3.53;;;14.30;56.50;;;;;;5066866;28;20466;-79
2023/12/16 06:05:46;;;;;;;12.10;3.90;;;14.40;56.60;;;;;;5075165;28;20448;-79
2023/12/16 06:08:14;;;;;;;12.83;3.70;;;14.40;56.50;;;;;;5077919;28;20528;-79
2023/12/16 06:10:42;;;;;;;12.00;4.00;;;14.50;56.80;;;;;;5071853;28;20480;-78
2023/12/16 06:13:10;;;;;;;9.77;3.30;;;14.50;56.40;;;;;;5079047;28;20456;-79
2023/12/16 06:15:39;;;;;;;13.73;3.50;;;14.50;56.60;;;;;;5077084;28;20448;-79
2023/12/16 06:18:08;;;;;;;10.20;3.60;;;14.50;56.50;;;;;;5078728;28;20531;-79
2023/12/16 06:20:36;;;;;;;9.73;3.87;;;14.50;56.90;;;;;;5058967;28;20442;-79
2023/12/16 06:23:06;;;;;;;12.03;4.30;;;14.50;56.40;;;;;;5065726;28;20489;-78
2023/12/16 06:25:35;;;;;;;11.17;4.10;;;14.50;56.40;;;;;;5074504;28;20978;-79
2023/12/16 06:28:15;;;;;;;10.47;3.73;;;14.40;56.70;;;;;;5073869;28;20549;-79
2023/12/16 06:30:55;;;;;;;12.33;4.00;;;14.60;57.00;;;;;;5067435;28;20483;-79
2023/12/16 06:33:24;;;;;;;10.87;3.90;;;14.60;57.00;;;;;;5078922;28;20460;-79
2023/12/16 06:35:55;;;;;;;11.00;3.87;;;14.60;57.00;;;;;;5074681;28;20442;-79
2023/12/16 06:38:25;;;;;;;14.40;3.90;;;14.60;56.70;;;;;;5066638;28;20470;-79
2023/12/16 06:40:53;;;;;;;11.30;3.73;;;14.60;56.70;;;;;;5070817;28;20972;-79
2023/12/16 06:43:22;;;;;;;11.30;4.63;;;14.60;56.60;;;;;;5080323;28;20511;-78
2023/12/16 06:45:50;;;;;;;17.30;4.00;;;14.60;56.80;;;;;;5067555;28;20457;-78
2023/12/16 06:48:18;;;;;;;21.37;4.40;;;14.70;57.00;;;;;;5076245;28;20493;-79
2023/12/16 06:50:49;;;;;;;7.93;3.10;;;14.70;56.90;;;;;;5076188;28;20450;-78
2023/12/16 06:53:17;;;;;;;13.23;3.50;;;14.60;57.10;;;;;;5064273;28;20457;-78
2023/12/16 06:55:47;;;;;;;15.70;4.20;;;14.70;57.20;;;;;;5067620;28;20461;-79
2023/12/16 06:58:18;;;;;;;13.23;4.30;;;14.70;57.00;;;;;;5076311;28;20469;-78
2023/12/16 07:00:47;;;;;;;14.27;4.33;;;14.70;57.20;;;;;;5069032;28;20449;-80
2023/12/16 07:03:15;;;;;;;12.30;4.00;;;14.60;57.00;;;;;;5072950;28;20596;-80
2023/12/16 07:05:43;;;;;;;12.73;4.07;;;14.70;57.40;;;;;;5081080;28;20490;-80
2023/12/16 07:08:12;;;;;;;10.40;4.23;;;14.80;57.40;;;;;;5080456;28;20552;-80
2023/12/16 07:10:40;;;;;;;16.43;4.30;;;14.80;57.30;;;;;;5078541;28;20446;-80
2023/12/16 07:13:10;;;;;;;14.30;4.17;;;14.70;57.20;;;;;;5060791;28;20439;-79
2023/12/16 07:15:39;;;;;;;12.80;4.27;;;14.80;57.60;;;;;;5076365;28;20499;-79
2023/12/16 07:18:08;;;;;;;16.80;4.60;;;14.80;57.30;;;;;;5071651;28;20554;-79
2023/12/16 07:20:36;;;;;;;16.30;4.00;;;14.80;58.00;;;;;;5071662;28;20452;-79
2023/12/16 07:23:04;;;;;;;11.63;4.17;;;14.90;57.40;;;;;;5080468;28;20515;-79
2023/12/16 07:25:33;;;;;;;13.13;5.10;;;14.80;57.40;;;;;;5078762;28;20454;-79
2023/12/16 07:28:01;;;;;;;18.03;4.13;;;14.90;57.40;;;;;;5070530;28;20492;-78
2023/12/16 07:30:32;;;;;;;13.43;4.87;;;14.80;57.60;;;;;;5076494;28;20509;-78
2023/12/16 07:33:00;;;;;;;13.10;4.17;;;14.90;57.50;;;;;;5067481;28;20430;-79
2023/12/16 07:35:29;;;;;;;18.90;4.97;;;14.90;57.60;;;;;;5064832;28;20439;-79
2023/12/16 07:38:00;;;;;;;15.57;4.97;;;14.90;57.80;;;;;;5078554;28;20465;-79
2023/12/16 07:40:29;;;;;;;22.20;4.77;;;14.90;57.70;;;;;;5062470;28;20446;-80
2023/12/16 07:42:58;;;;;;;11.40;4.20;;;14.90;57.60;;;;;;5069360;28;20466;-79
2023/12/16 07:45:34;;;;;;;13.77;4.90;;;14.90;57.80;;;;;;5069855;28;20486;-80
2023/12/16 07:48:02;;;;;;;8.73;4.03;;;14.90;57.90;;;;;;5076464;28;20553;-80
2023/12/16 07:50:31;;;;;;;15.57;4.70;;;14.90;58.20;;;;;;5070431;28;20465;-81
2023/12/16 07:52:59;;;;;;;25.13;5.47;;;14.90;58.20;;;;;;5073922;28;20522;-80
2023/12/16 07:55:29;;;;;;;21.47;4.97;;;14.90;58.20;;;;;;5070611;28;20472;-80
2023/12/16 07:58:02;;;;;;;17.40;4.23;;;14.90;58.00;;;;;;5070214;28;20483;-80
2023/12/16 08:00:32;;;;;;;13.87;4.53;;;14.90;58.70;;;;;;5084440;28;20469;-80
2023/12/16 08:03:00;;;;;;;21.67;5.80;;;14.90;58.10;;;;;;5073556;28;20447;-80
2023/12/16 08:05:29;;;;;;;11.70;4.60;;;14.90;58.60;;;;;;5081509;28;20442;-80
2023/12/16 08:07:57;;;;;;;16.30;5.40;;;14.90;58.40;;;;;;5071275;28;20470;-80
2023/12/16 08:10:32;;;;;;;17.30;5.17;;;14.90;58.60;;;;;;5078889;28;20491;-80
2023/12/16 08:13:01;;;;;;;17.17;5.30;;;15.00;58.70;;;;;;5076707;28;20472;-79
2023/12/16 08:15:34;;;;;;;12.00;4.53;;;15.00;58.60;;;;;;5080161;28;20479;-80
2023/12/16 08:18:02;;;;;;;20.90;5.20;;;14.90;58.00;;;;;;5083776;28;20469;-79
2023/12/16 08:20:31;;;;;;;17.90;5.57;;;14.90;58.60;;;;;;5077287;28;20446;-79
2023/12/16 08:23:02;;;;;;;16.10;5.43;;;14.90;58.90;;;;;;5077709;28;20442;-79
2023/12/16 08:25:36;;;;;;;19.67;5.87;;;14.90;59.00;;;;;;5084736;28;20465;-80
2023/12/16 08:28:17;;;;;;;15.67;5.10;;;14.90;59.10;;;;;;5076999;28;20460;-81
2023/12/16 08:30:56;;;;;;;15.23;5.00;;;14.90;59.00;;;;;;5083744;28;20453;-79
2023/12/16 08:33:32;;;;;;;28.90;5.47;;;14.80;59.50;;;;;;5086446;28;20442;-80
2023/12/16 08:36:06;;;;;;;21.33;6.43;;;14.90;59.00;;;;;;5084952;28;20438;-81
2023/12/16 08:38:39;;;;;;;18.13;5.33;;;14.80;59.10;;;;;;5075525;28;20462;-80
2023/12/16 08:41:08;;;;;;;14.33;5.40;;;14.80;59.40;;;;;;5071990;28;20488;-81
2023/12/16 08:43:49;;;;;;;25.23;6.40;;;14.90;59.50;;;;;;5070915;28;20495;-80
2023/12/16 08:49:44;;;;;;;22.97;5.47;;;14.90;59.40;;;;;;5071360;28;20445;-79
2023/12/16 08:52:18;;;;;;;19.50;5.80;;;14.90;59.50;;;;;;5084745;28;20469;-78
2023/12/16 09:02:49;;;;;;;20.37;5.30;;;14.90;59.50;;;;;;4977117;28;20556;-81
2023/12/16 09:05:48;;;;;;;24.43;6.20;;;14.90;60.00;;;;;;5014506;28;20529;-80
2023/12/16 09:08:30;;;;;;;21.40;6.00;;;14.90;59.80;;;;;;5076555;28;20457;-81
2023/12/16 09:11:10;;;;;;;26.27;6.83;;;14.80;59.90;;;;;;5072465;28;20441;-77
2023/12/16 09:13:41;;;;;;;12.10;5.00;;;14.90;60.50;;;;;;5060757;28;20434;-82
2023/12/16 09:16:10;;;;;;;14.50;6.20;;;14.80;60.50;;;;;;5063959;28;20533;-81
2023/12/16 09:18:40;;;;;;;20.97;6.00;;;14.80;61.10;;;;;;5072641;28;20493;-80
2023/12/16 09:21:11;;;;;;;18.30;6.43;;;14.90;61.30;;;;;;5067634;28;20524;-78
2023/12/16 09:23:43;;;;;;;19.50;6.23;;;14.90;60.70;;;;;;5063243;28;20511;-77
2023/12/16 09:26:12;;;;;;;26.13;7.17;;;14.90;61.00;;;;;;5066755;28;20450;-78
2023/12/16 09:28:54;;;;;;;18.90;7.00;;;14.80;61.00;;;;;;5071476;28;21050;-78
2023/12/16 09:31:35;;;;;;;23.33;7.77;;;14.80;62.10;;;;;;5066583;28;20461;-78
2023/12/16 09:34:20;;;;;;;21.53;7.77;;;14.80;61.80;;;;;;5068353;28;20435;-78
2023/12/16 09:37:10;;;;;;;29.73;7.20;;;14.80;62.10;;;;;;5061952;28;20457;-77
2023/12/16 09:39:53;;;;;;;18.47;7.00;;;14.80;62.30;;;;;;5072301;28;20442;-78
2023/12/16 09:42:26;;;;;;;27.27;7.93;;;14.80;62.50;;;;;;5075298;28;20972;-78
2023/12/16 09:48:43;;;;;;;32.80;8.50;;;14.80;63.30;;;;;;5075044;28;20461;-77
2023/12/16 09:51:28;;;;;;;30.57;8.50;;;14.80;63.40;;;;;;5068296;28;20522;-78
2023/12/16 09:53:57;;;;;;;29.07;7.90;;;14.90;63.20;;;;;;5064883;28;20967;-77
2023/12/16 09:56:25;;;;;;;24.00;7.97;;;14.90;63.60;;;;;;5069767;28;20445;-78
2023/12/16 09:58:53;;;;;;;24.80;7.83;;;14.90;63.80;;;;;;5076041;28;20449;-80
2023/12/16 10:01:36;;;;;;;24.13;8.70;;;15.00;64.90;;;;;;5078918;28;20480;-78
2023/12/16 10:04:09;;;;;;;33.67;9.33;;;14.90;64.20;;;;;;5075137;28;20480;-78
2023/12/16 10:06:47;;;;;;;29.50;9.10;;;14.90;64.60;;;;;;5070158;28;20464;-78
2023/12/16 10:09:15;;;;;;;27.27;8.57;;;14.90;64.70;;;;;;5069261;28;20445;-79
2023/12/16 10:39:24;;;;;;;27.17;9.80;;;14.90;65.00;;;;;;4742868;30;20436;-79
2023/12/16 10:42:18;;;;;;;36.63;10.50;;;14.90;65.20;;;;;;4790987;29;20523;-80
2023/12/16 11:03:52;;;;;;;40.10;10.20;;;15.00;65.30;;;;;;4794125;29;20567;-81
2023/12/16 11:09:35;;;;;;;26.17;10.40;;;14.60;66.30;;;;;;4882183;29;20454;-83
2023/12/16 11:12:36;;;;;;;27.87;9.83;;;14.70;66.60;;;;;;4960412;28;20447;-82
2023/12/16 11:15:05;;;;;;;26.27;10.20;;;14.70;67.10;;;;;;5048908;28;20447;-83
2023/12/16 11:17:43;;;;;;;35.70;10.07;;;14.60;67.00;;;;;;5044755;28;20462;-80
2023/12/16 11:20:17;;;;;;;34.60;10.50;;;14.70;67.70;;;;;;5053495;28;20445;-80
2023/12/16 11:29:46;;;;;;;32.57;10.27;;;14.70;68.10;;;;;;4952816;28;20509;-80
2023/12/16 11:32:14;;;;;;;33.07;9.97;;;14.80;67.50;;;;;;5043093;28;20451;-79
2023/12/16 11:34:43;;;;;;;32.50;9.57;;;14.90;67.20;;;;;;5043288;28;20506;-80
2023/12/16 11:37:52;;;;;;;35.20;10.70;;;14.90;67.40;;;;;;5035415;28;20506;-79
2023/12/16 11:40:41;;;;;;;25.37;9.97;;;14.90;67.90;;;;;;5040629;28;20467;-80
2023/12/16 11:43:09;;;;;;;35.10;11.30;;;14.90;67.40;;;;;;5027543;28;20444;-80
2023/12/16 11:46:04;;;;;;;22.37;10.80;;;14.90;67.70;;;;;;5027116;28;20468;-83
2023/12/16 11:48:46;;;;;;;28.70;9.43;;;14.90;67.90;;;;;;5038733;28;20471;-82
2023/12/16 11:51:40;;;;;;;;;;;;;;;;;;;;;
2023/12/16 11:54:14;;;;;;;23.70;9.73;;;14.90;68.00;;;;;;5043428;28;20448;-83
2023/12/16 11:56:46;;;;;;;26.67;10.07;;;14.90;68.40;;;;;;5042859;28;20487;-83
2023/12/16 12:07:16;;;;;;;26.57;9.90;;;14.80;68.30;;;;;;4890275;29;20485;-83
2023/12/16 12:09:54;;;;;;;38.97;10.80;;;14.60;69.30;;;;;;4922783;28;20449;-82
2023/12/16 12:12:22;;;;;;;22.23;10.37;;;14.60;70.00;;;;;;5028097;28;20506;-81
2023/12/16 12:14:50;;;;;;;30.20;10.37;;;14.70;69.90;;;;;;5033466;28;20452;-81
2023/12/16 12:17:19;;;;;;;26.63;10.33;;;14.70;70.10;;;;;;5035230;28;20471;-80
2023/12/16 12:19:47;;;;;;;19.90;9.53;;;14.80;70.10;;;;;;5035153;28;20462;-80
2023/12/16 12:22:16;;;;;;;22.33;9.57;;;14.80;69.50;;;;;;5037197;28;20534;-79
2023/12/16 12:24:44;;;;;;;27.00;10.20;;;14.90;70.30;;;;;;5028130;28;20462;-78
2023/12/16 12:27:12;;;;;;;25.87;9.30;;;14.90;69.80;;;;;;5034296;28;20511;-80
2023/12/16 12:29:55;;;;;;;17.73;9.37;;;15.00;69.60;;;;;;5036836;28;20436;-80
2023/12/16 12:32:23;;;;;;;21.70;9.40;;;15.00;69.50;;;;;;5032229;28;20454;-79
2023/12/16 12:35:01;;;;;;;26.30;9.33;;;15.00;69.50;;;;;;5034973;28;20493;-79
2023/12/16 12:37:36;;;;;;;28.60;9.47;;;15.00;69.70;;;;;;5032903;28;20551;-81
2023/12/16 12:40:15;;;;;;;21.43;9.90;;;14.80;69.70;;;;;;5038310;28;20450;-80
2023/12/16 12:42:51;;;;;;;25.97;11.17;;;14.80;70.70;;;;;;5037840;28;20451;-82
2023/12/16 12:45:27;;;;;;;26.70;11.20;;;14.80;71.00;;;;;;5040800;28;20892;-84
2023/12/16 12:51:35;;;;;;;22.67;9.63;;;14.90;71.50;;;;;;5021411;28;20458;-82
2023/12/16 12:54:05;;;;;;;21.37;10.20;;;14.90;71.30;;;;;;5027512;28;20452;-80
2023/12/16 12:56:34;;;;;;;25.53;11.23;;;14.80;71.00;;;;;;5031095;28;20467;-80
2023/12/16 12:59:02;;;;;;;24.10;11.10;;;14.80;72.00;;;;;;5034826;28;20466;-80
2023/12/16 13:01:58;;;;;;;18.13;9.30;;;14.90;71.50;;;;;;5036095;28;20447;-81
2023/12/16 13:04:34;;;;;;;16.37;9.23;;;14.90;71.90;;;;;;5032284;28;20454;-82
2023/12/16 13:07:14;;;;;;;22.40;9.53;;;14.90;71.70;;;;;;5034955;28;20562;-82
2023/12/16 13:09:44;;;;;;;14.83;9.00;;;14.80;72.60;;;;;;5036894;28;20505;-79
2023/12/16 13:12:12;;;;;;;17.97;8.83;;;14.80;72.60;;;;;;5032286;28;20467;-82
2023/12/16 13:14:43;;;;;;;18.50;9.17;;;14.80;72.40;;;;;;5036551;28;20443;-80
2023/12/16 13:17:16;;;;;;;14.53;8.90;;;14.90;72.60;;;;;;5032350;28;20538;-81
2023/12/16 13:19:44;;;;;;;15.33;8.90;;;14.90;72.40;;;;;;5035104;28;20457;-77
2023/12/16 13:22:12;;;;;;;22.03;9.83;;;14.90;72.90;;;;;;5034355;28;20459;-79
2023/12/16 13:24:45;;;;;;;18.33;8.73;;;14.90;72.60;;;;;;5036770;28;20451;-79
2023/12/16 13:27:14;;;;;;;15.60;8.37;;;15.00;72.60;;;;;;5031161;28;20595;-80
2023/12/16 13:29:45;;;;;;;14.33;8.53;;;15.00;72.50;;;;;;5029374;28;20993;-80
2023/12/16 13:32:18;;;;;;;11.17;7.23;;;15.00;72.50;;;;;;5026805;28;20463;-81
2023/12/16 13:35:13;;;;;;;15.07;7.97;;;14.90;72.60;;;;;;5033780;28;20448;-81
2023/12/16 13:38:27;;;;;;;14.10;7.47;;;14.90;73.40;;;;;;5025928;28;20467;-79
2023/12/16 13:41:42;;;;;;;14.63;7.77;;;15.00;73.40;;;;;;5033276;28;20449;-79
2023/12/16 13:44:34;;;;;;;10.17;7.03;;;15.10;72.40;;;;;;5031820;28;20562;-79
2023/12/16 13:51:15;;;;;;;13.70;7.77;;;14.90;73.00;;;;;;4964426;28;20454;-79
2023/12/16 13:53:59;;;;;;;13.17;7.10;;;14.90;73.90;;;;;;4981472;28;20531;-79
2023/12/16 13:56:55;;;;;;;12.40;7.77;;;14.80;74.00;;;;;;5033452;28;20531;-79
2023/12/16 14:03:06;;;;;;;9.23;7.53;;;14.90;73.80;;;;;;5018345;28;20490;-79
2023/12/16 14:05:38;;;;;;;10.20;7.60;;;15.00;73.60;;;;;;5029427;28;20444;-80
2023/12/16 14:08:12;;;;;;;12.17;7.47;;;15.00;73.60;;;;;;5023694;28;20834;-79
2023/12/16 14:11:03;;;;;;;14.53;7.90;;;15.00;73.40;;;;;;5025375;28;20443;-79
2023/12/16 14:13:49;;;;;;;10.90;7.77;;;14.90;73.80;;;;;;5028453;28;20498;-80
2023/12/16 14:16:33;;;;;;;13.13;7.50;;;15.00;74.30;;;;;;5045833;28;20436;-78
2023/12/16 14:19:11;;;;;;;13.43;8.00;;;15.10;73.60;;;;;;5051590;28;20435;-79
2023/12/16 14:21:57;;;;;;;17.60;7.47;;;15.10;73.40;;;;;;5047789;28;20463;-79
2023/12/16 14:24:40;;;;;;;15.97;8.00;;;15.00;73.40;;;;;;5044832;28;20450;-79
2023/12/16 14:27:26;;;;;;;9.03;6.57;;;15.00;73.50;;;;;;5035239;28;20471;-80
2023/12/16 14:30:00;;;;;;;7.90;6.00;;;14.90;73.80;;;;;;5051079;28;20529;-79
2023/12/16 14:32:33;;;;;;;9.40;6.60;;;15.00;74.50;;;;;;5035453;28;20878;-79
2023/12/16 14:35:04;;;;;;;10.37;7.17;;;15.00;74.20;;;;;;5032795;28;20829;-78
2023/12/16 14:37:32;;;;;;;9.97;6.70;;;15.00;74.00;;;;;;5042298;28;20470;-78
2023/12/16 14:40:01;;;;;;;15.00;6.80;;;15.00;73.50;;;;;;5045920;28;20443;-79
2023/12/16 14:42:29;;;;;;;8.97;6.90;;;15.00;73.60;;;;;;5046598;28;20477;-80
2023/12/16 14:44:59;;;;;;;8.47;6.10;;;15.00;74.00;;;;;;5045715;28;20514;-79
2023/12/16 14:47:28;;;;;;;8.00;6.27;;;15.10;74.00;;;;;;5042317;28;20483;-79
2023/12/16 14:49:56;;;;;;;7.73;5.70;;;15.10;73.90;;;;;;5036810;28;20510;-79
2023/12/16 14:52:24;;;;;;;7.30;6.00;;;15.10;74.00;;;;;;5046160;28;20457;-80
2023/12/16 14:54:56;;;;;;;9.23;6.80;;;15.10;73.90;;;;;;5060635;22;20708;-82
2023/12/16 14:57:24;;;;;;;8.90;6.40;;;15.10;74.00;;;;;;5055028;28;20545;-82
2023/12/16 14:59:51;;;;;;;11.27;7.17;;;15.10;74.00;;;;;;5049791;28;20481;-83
2023/12/16 15:02:21;;;;;;;10.13;7.40;;;15.10;74.30;;;;;;5051216;28;20508;-82
2023/12/16 15:04:49;;;;;;;9.20;7.17;;;15.10;74.30;;;;;;5056515;28;20489;-81
2023/12/16 15:07:22;;;;;;;12.03;7.57;;;15.00;74.80;;;;;;5064591;28;20470;-83
2023/12/16 15:09:52;;;;;;;9.93;6.97;;;15.00;74.60;;;;;;5052847;28;20509;-83
2023/12/16 15:12:23;;;;;;;9.50;7.30;;;15.10;75.20;;;;;;5047914;28;20551;-80
2023/12/16 15:14:52;;;;;;;9.07;7.00;;;15.10;74.70;;;;;;5055031;28;20562;-81
2023/12/16 15:17:21;;;;;;;11.07;8.00;;;15.20;74.70;;;;;;5069776;28;20442;-83
2023/12/16 15:19:53;;;;;;;12.40;8.33;;;15.20;73.90;;;;;;5071425;28;20434;-82
2023/12/16 15:22:21;;;;;;;12.03;8.57;;;15.10;74.40;;;;;;5069069;28;20437;-82
2023/12/16 15:24:50;;;;;;;11.67;8.30;;;15.20;74.70;;;;;;5062732;28;20508;-82
2023/12/16 15:27:18;;;;;;;15.33;9.10;;;15.20;74.20;;;;;;5057771;28;20549;-83
2023/12/16 15:32:31;;;;;;;14.60;9.50;;;15.20;75.20;;;;;;5059225;28;20968;-81
2023/12/16 15:35:01;;;;;;;14.80;9.20;;;15.10;75.00;;;;;;5060111;28;20470;-83
2023/12/16 15:37:31;;;;;;;15.90;10.00;;;15.10;75.30;;;;;;5059685;28;20470;-83
2023/12/16 15:40:05;;;;;;;16.00;9.67;;;15.20;75.00;;;;;;5057336;28;20454;-79
2023/12/16 15:42:33;;;;;;;16.90;10.27;;;15.10;75.10;;;;;;5057282;28;20426;-81
2023/12/16 15:45:02;;;;;;;13.80;9.73;;;15.20;75.20;;;;;;5058816;28;20470;-81